Time;durP1;ratioP1;P1;durP2;ratioP2;P2;SDS_P1;SDS_P2;PMS_P1;PMS_P2;Temp;Humidity;BMP_temperature;BMP_pressure;BME280_temperature;BME280_humidity;BME280_pressure;Samples;Min_cycle;Max_cycle;Signal;HPM_P1;HPM_P2
2023/03/16 00:02:07;;;;;;;16.97;6.60;;;;;;;-145.18;100.00;47248.41;5051470;28;20317;-72
2023/03/16 00:04:36;;;;;;;11.17;6.20;;;;;;;-145.18;100.00;47193.69;5032966;28;20363;-72
2023/03/16 00:07:11;;;;;;;12.73;6.73;;;;;;;-145.18;100.00;47148.75;5051315;28;20270;-72
2023/03/16 00:09:39;;;;;;;14.60;6.47;;;;;;;-145.18;100.00;47111.66;5051495;28;20270;-72
2023/03/16 00:12:08;;;;;;;10.60;6.40;;;;;;;-145.18;100.00;47037.41;5046697;28;20274;-72
2023/03/16 00:14:34;;;;;;;11.67;6.37;;;;;;;-145.18;100.00;47015.91;5049717;28;20350;-72
2023/03/16 00:17:00;;;;;;;11.23;6.43;;;;;;;-145.18;100.00;47000.28;5051227;28;20695;-72
2023/03/16 00:19:25;;;;;;;11.30;6.83;;;;;;;-145.18;100.00;46963.19;5051167;28;20536;-72
2023/03/16 00:21:51;;;;;;;12.67;6.83;;;;;;;-145.18;100.00;46969.03;5050948;28;20474;-72
2023/03/16 00:24:18;;;;;;;13.07;6.77;;;;;;;-145.18;100.00;46949.50;5035199;28;20038;-72
2023/03/16 00:26:46;;;;;;;11.67;6.17;;;;;;;-145.18;100.00;46908.47;5030682;28;20826;-72
2023/03/16 00:29:12;;;;;;;12.57;6.63;;;;;;;-145.18;100.00;46935.81;5031190;28;20307;-72
2023/03/16 00:31:42;;;;;;;15.10;6.60;;;;;;;-145.18;100.00;46914.34;5031014;28;20318;-72
2023/03/16 00:34:09;;;;;;;10.43;6.80;;;;;;;-145.18;100.00;46916.28;5031095;28;20410;-72
2023/03/16 00:36:37;;;;;;;13.53;6.60;;;;;;;-145.18;100.00;46926.06;5030835;28;20398;-72
2023/03/16 00:39:04;;;;;;;10.80;6.13;;;;;;;-145.18;100.00;46892.84;5031194;28;20366;-72
2023/03/16 00:41:29;;;;;;;9.90;5.53;;;;;;;-145.18;100.00;46918.25;5030665;28;20279;-72
2023/03/16 00:43:54;;;;;;;12.17;6.33;;;;;;;-145.18;100.00;46894.81;5040375;28;20282;-72
2023/03/16 00:46:25;;;;;;;9.67;5.83;;;;;;;-145.18;100.00;46861.59;5050362;28;20049;-72
2023/03/16 00:48:51;;;;;;;12.97;6.30;;;;;;;-145.18;100.00;46883.09;5033884;28;20036;-72
2023/03/16 00:51:18;;;;;;;12.57;5.73;;;;;;;-145.18;100.00;46855.72;5050523;28;20282;-73
2023/03/16 00:53:44;;;;;;;12.43;6.33;;;;;;;-145.18;100.00;46857.69;5049724;28;20060;-72
2023/03/16 00:56:10;;;;;;;10.03;6.27;;;;;;;-145.18;100.00;46865.50;5050584;28;20417;-72
2023/03/16 00:58:38;;;;;;;12.40;6.03;;;;;;;-145.18;100.00;46857.69;5050162;28;21115;-72
2023/03/16 01:01:06;;;;;;;8.80;5.73;;;;;;;-145.18;100.00;46855.72;5050303;28;20045;-72
2023/03/16 01:03:31;;;;;;;9.40;5.37;;;;;;;-145.18;100.00;46865.50;5037214;28;20783;-72
2023/03/16 01:05:59;;;;;;;12.43;5.80;;;;;;;-145.18;100.00;46851.81;5030744;28;20279;-72
2023/03/16 01:08:29;;;;;;;9.57;5.63;;;;;;;-145.18;100.00;46830.34;5030154;28;20044;-72
2023/03/16 01:10:54;;;;;;;9.17;5.47;;;;;;;-145.18;100.00;46822.53;5030322;28;20338;-73
2023/03/16 01:13:20;;;;;;;9.40;5.43;;;;;;;-145.18;100.00;46804.94;5030137;28;20298;-72
2023/03/16 01:15:49;;;;;;;11.90;6.27;;;;;;;-145.18;100.00;46791.28;5030621;28;20300;-72
2023/03/16 01:18:15;;;;;;;8.13;5.30;;;;;;;-145.18;100.00;46795.19;5030054;28;20743;-73
2023/03/16 01:20:47;;;;;;;9.50;5.67;;;;;;;-145.18;100.00;46761.97;5030219;28;20279;-73
2023/03/16 01:23:13;;;;;;;9.90;5.40;;;;;;;-145.18;100.00;46748.28;5029734;28;20048;-73
2023/03/16 01:25:38;;;;;;;14.20;7.00;;;;;;;-145.18;100.00;46748.28;5030601;28;20728;-72
2023/03/16 01:28:03;;;;;;;11.17;5.70;;;;;;;-145.18;100.00;46760.00;5029971;28;20045;-72
2023/03/16 01:30:29;;;;;;;11.80;5.73;;;;;;;-145.18;100.00;46744.38;5030115;28;20448;-72
2023/03/16 01:32:54;;;;;;;10.43;5.73;;;;;;;-145.18;100.00;46734.63;5029937;28;20045;-73
2023/03/16 01:35:20;;;;;;;8.70;5.57;;;;;;;-145.18;100.00;46709.22;5030007;28;20056;-73
2023/03/16 01:37:45;;;;;;;9.40;5.20;;;;;;;-145.18;100.00;46709.22;5029743;28;20490;-73
2023/03/16 01:40:11;;;;;;;8.90;5.27;;;;;;;-145.18;100.00;46707.28;5030176;28;20034;-73
2023/03/16 01:42:59;;;;;;;7.50;5.23;;;;;;;-145.18;100.00;46699.47;5035752;28;20504;-72
2023/03/16 01:45:58;;;;;;;10.67;6.07;;;;;;;-145.18;100.00;46713.13;5049963;28;20500;-72
2023/03/16 01:48:26;;;;;;;10.53;5.67;;;;;;;-145.18;100.00;46705.31;5049480;28;20273;-73
2023/03/16 01:50:52;;;;;;;7.43;5.60;;;;;;;-145.18;100.00;46707.28;5043883;28;20810;-72
2023/03/16 01:53:20;;;;;;;11.13;5.47;;;;;;;-145.18;100.00;46701.41;5029408;28;20298;-72
2023/03/16 01:55:47;;;;;;;9.73;5.40;;;;;;;-145.18;100.00;46691.66;5029909;28;20269;-72
2023/03/16 01:58:13;;;;;;;10.27;5.57;;;;;;;-145.18;100.00;46689.69;5029839;28;20262;-72
2023/03/16 02:03:17;;;;;;;10.93;5.85;;;;;;;-145.18;100.00;46693.59;5190656;22;20352;-71
2023/03/16 02:05:51;;;;;;;10.40;5.70;;;;;;;-145.18;100.00;46685.78;5049555;28;20048;-71
2023/03/16 02:08:17;;;;;;;13.37;6.37;;;;;;;-145.18;100.00;46672.13;5048411;28;20300;-71
2023/03/16 02:10:44;;;;;;;10.80;5.67;;;;;;;-145.18;100.00;46677.97;5045416;28;20773;-71
2023/03/16 02:13:10;;;;;;;11.27;6.00;;;;;;;-145.18;100.00;46672.13;5043178;28;20329;-71
2023/03/16 02:15:36;;;;;;;9.03;5.20;;;;;;;-145.18;100.00;46666.25;5029822;28;20302;-71
2023/03/16 02:18:01;;;;;;;8.97;5.00;;;;;;;-145.18;100.00;46668.22;5030601;28;20801;-71
2023/03/16 02:20:45;;;;;;;8.13;4.60;;;;;;;-145.18;100.00;46662.34;5030282;28;20040;-71
2023/03/16 02:23:19;;;;;;;10.27;5.60;;;;;;;-145.18;100.00;46664.31;5049243;28;20115;-72
2023/03/16 02:26:03;;;;;;;8.10;5.13;;;;;;;-145.18;100.00;46652.59;5049785;28;20782;-71
2023/03/16 02:28:47;;;;;;;10.50;5.40;;;;;;;-145.18;100.00;46654.53;5049690;28;20261;-71
2023/03/16 02:31:12;;;;;;;12.20;5.10;;;;;;;-145.18;100.00;46648.69;5050027;28;20345;-71
2023/03/16 02:33:39;;;;;;;10.67;5.07;;;;;;;-145.18;100.00;46648.69;5045871;28;20806;-71
2023/03/16 02:36:05;;;;;;;12.47;5.50;;;;;;;-145.18;100.00;46635.00;5029302;28;20648;-71
2023/03/16 02:38:30;;;;;;;10.17;4.77;;;;;;;-145.18;100.00;46640.88;5036936;28;20286;-71
2023/03/16 02:41:09;;;;;;;10.70;5.17;;;;;;;-145.18;100.00;46642.81;5049374;28;20033;-71
2023/03/16 02:43:39;;;;;;;13.43;5.23;;;;;;;-145.18;100.00;46629.13;5049156;28;20029;-71
2023/03/16 02:46:05;;;;;;;9.27;5.13;;;;;;;-145.18;100.00;46640.88;5049335;28;20377;-72
2023/03/16 02:48:43;;;;;;;11.77;5.63;;;;;;;-145.18;100.00;46627.19;5050728;28;20270;-72
2023/03/16 02:51:09;;;;;;;8.67;5.07;;;;;;;-145.18;100.00;46625.22;5046298;28;20278;-71
2023/03/16 02:53:34;;;;;;;10.73;5.60;;;;;;;-145.18;100.00;46660.41;5033055;28;20297;-71
2023/03/16 02:56:01;;;;;;;7.83;5.00;;;;;;;-145.18;100.00;46654.53;5033054;28;20448;-72
2023/03/16 02:58:27;;;;;;;9.47;5.33;;;;;;;-145.18;100.00;46660.41;5041707;28;20110;-71
2023/03/16 03:00:53;;;;;;;10.50;5.23;;;;;;;-145.18;100.00;46650.63;5052871;28;20282;-72
2023/03/16 03:03:18;;;;;;;9.63;5.63;;;;;;;-145.18;100.00;46650.63;5052603;28;20296;-71
2023/03/16 03:05:44;;;;;;;9.03;5.37;;;;;;;-145.18;100.00;46640.88;5052679;28;20044;-71
2023/03/16 03:08:09;;;;;;;10.43;5.10;;;;;;;-145.18;100.00;46642.81;5052290;28;20118;-72
2023/03/16 03:10:34;;;;;;;6.93;5.10;;;;;;;-145.18;100.00;46652.59;5033573;28;20037;-71
2023/03/16 03:13:00;;;;;;;13.03;5.43;;;;;;;-145.18;100.00;46636.94;5032355;28;20052;-71
2023/03/16 03:15:25;;;;;;;7.73;5.10;;;;;;;-145.18;100.00;46638.91;5032864;28;20802;-72
2023/03/16 03:17:51;;;;;;;10.90;5.43;;;;;;;-145.18;100.00;46633.06;5032190;28;20029;-71
2023/03/16 03:20:17;;;;;;;11.23;5.17;;;;;;;-145.18;100.00;46633.06;5032804;28;20117;-71
2023/03/16 03:22:44;;;;;;;10.57;5.60;;;;;;;-145.18;100.00;46631.09;5032309;28;20041;-71
2023/03/16 03:25:12;;;;;;;8.87;5.37;;;;;;;-145.18;100.00;46625.22;5032325;28;20266;-72
2023/03/16 03:27:38;;;;;;;8.37;5.43;;;;;;;-145.18;100.00;46631.09;5032433;28;20369;-71
2023/03/16 03:30:04;;;;;;;10.73;6.03;;;;;;;-145.18;100.00;46623.28;5032242;28;20271;-71
2023/03/16 03:32:30;;;;;;;12.00;5.47;;;;;;;-145.18;100.00;46625.22;5032201;28;20037;-71
2023/03/16 03:34:55;;;;;;;8.47;5.07;;;;;;;-145.18;100.00;46627.19;5040982;28;20072;-71
2023/03/16 03:37:20;;;;;;;13.47;5.60;;;;;;;-145.18;100.00;46627.19;5051926;28;20831;-71
2023/03/16 03:39:47;;;;;;;8.57;5.00;;;;;;;-145.18;100.00;46633.06;5052209;28;20043;-71
2023/03/16 03:42:12;;;;;;;12.77;6.17;;;;;;;-145.18;100.00;46633.06;5051696;28;20117;-71
2023/03/16 03:44:38;;;;;;;10.90;5.37;;;;;;;-145.18;100.00;46623.28;5052229;28;20274;-72
2023/03/16 03:47:04;;;;;;;10.53;4.47;;;;;;;-145.18;100.00;46621.31;5051803;28;20084;-71
2023/03/16 03:49:30;;;;;;;9.80;5.23;;;;;;;-145.18;100.00;46625.22;5045672;28;20099;-71
2023/03/16 03:51:57;;;;;;;9.47;4.50;;;;;;;-145.18;100.00;46629.13;5031964;28;20746;-71
2023/03/16 03:54:23;;;;;;;8.93;4.37;;;;;;;-145.18;100.00;46627.19;5031746;28;20034;-71
2023/03/16 03:56:50;;;;;;;6.33;4.30;;;;;;;-145.18;100.00;46625.22;5031950;28;20370;-71
2023/03/16 03:59:16;;;;;;;11.13;5.00;;;;;;;-145.18;100.00;46629.13;5045757;28;20274;-71
2023/03/16 04:01:41;;;;;;;8.47;4.40;;;;;;;-145.18;100.00;46625.22;5051227;28;20387;-72
2023/03/16 04:04:07;;;;;;;12.10;4.90;;;;;;;-145.18;100.00;46623.28;5033538;28;20045;-72
2023/03/16 04:06:32;;;;;;;11.47;4.67;;;;;;;-145.18;100.00;46629.13;5051657;28;20100;-71
2023/03/16 04:08:58;;;;;;;6.60;4.23;;;;;;;-145.18;100.00;46633.06;5038620;28;20116;-71
2023/03/16 04:11:23;;;;;;;9.57;4.40;;;;;;;-145.18;100.00;46633.06;5031621;28;20041;-71
2023/03/16 04:13:50;;;;;;;6.43;4.13;;;;;;;-145.18;100.00;46629.13;5031056;28;20069;-71
2023/03/16 04:16:16;;;;;;;7.23;4.07;;;;;;;-145.18;100.00;46633.06;5031846;28;20033;-72
2023/03/16 04:18:41;;;;;;;8.33;4.00;;;;;;;-145.18;100.00;46636.94;5031285;28;20822;-71
2023/03/16 04:21:13;;;;;;;8.67;3.77;;;;;;;-145.18;100.00;46635.00;5031361;28;20120;-72
2023/03/16 04:23:38;;;;;;;10.70;4.07;;;;;;;-145.18;100.00;46636.94;5031268;28;20104;-71
2023/03/16 04:26:04;;;;;;;9.47;3.97;;;;;;;-145.18;100.00;46636.94;5031144;28;20358;-71
2023/03/16 04:28:31;;;;;;;9.03;3.93;;;;;;;-145.18;100.00;46629.13;5031333;28;20033;-72
2023/03/16 04:31:01;;;;;;;8.27;3.80;;;;;;;-145.18;100.00;46631.09;5031286;28;20033;-72
2023/03/16 04:33:26;;;;;;;9.87;3.77;;;;;;;-145.18;100.00;46633.06;5031065;28;20282;-72
2023/03/16 04:35:51;;;;;;;5.60;3.30;;;;;;;-145.18;100.00;46636.94;5031042;28;20746;-72
2023/03/16 04:38:17;;;;;;;5.97;3.50;;;;;;;-145.18;100.00;46631.09;5030703;28;20500;-72
2023/03/16 04:40:42;;;;;;;11.60;4.17;;;;;;;-145.18;100.00;46633.06;5016375;28;20425;-71
2023/03/16 04:43:08;;;;;;;10.73;3.47;;;;;;;-145.18;100.00;46625.22;5034011;28;20037;-72
2023/03/16 04:45:33;;;;;;;7.73;3.33;;;;;;;-145.18;100.00;46621.31;5050670;28;20029;-71
2023/03/16 04:47:59;;;;;;;10.27;3.83;;;;;;;-145.18;100.00;46633.06;5050585;28;20068;-72
2023/03/16 04:50:24;;;;;;;9.87;3.50;;;;;;;-145.18;100.00;46627.19;5050731;28;20033;-72
2023/03/16 04:52:50;;;;;;;8.87;3.50;;;;;;;-145.18;100.00;46631.09;5050110;28;20148;-72
2023/03/16 04:55:15;;;;;;;9.77;3.83;;;;;;;-145.18;100.00;46629.13;5050855;28;20068;-72
2023/03/16 04:57:41;;;;;;;5.27;3.33;;;;;;;-145.18;100.00;46635.00;5050445;28;20266;-72
2023/03/16 05:00:11;;;;;;;10.33;3.60;;;;;;;-145.18;100.00;46631.09;5043494;28;20437;-72
2023/03/16 05:02:36;;;;;;;10.13;3.63;;;;;;;-145.18;100.00;46642.81;5030333;28;20057;-71
2023/03/16 05:05:04;;;;;;;7.30;3.37;;;;;;;-145.18;100.00;46660.41;5030558;28;20297;-72
2023/03/16 05:07:30;;;;;;;6.23;3.87;;;;;;;-145.18;100.00;46677.97;5030552;28;20552;-72
2023/03/16 05:09:55;;;;;;;7.43;3.90;;;;;;;-145.18;100.00;46654.53;5032738;28;20634;-72
2023/03/16 05:12:21;;;;;;;6.77;4.03;;;;;;;-145.18;100.00;46670.16;5039948;28;20277;-71
2023/03/16 05:14:46;;;;;;;6.20;4.23;;;;;;;-145.18;100.00;46681.88;5041586;28;20037;-71
2023/03/16 05:17:13;;;;;;;6.47;3.73;;;;;;;-145.18;100.00;46685.78;5050148;28;20080;-72
2023/03/16 05:19:39;;;;;;;8.10;4.67;;;;;;;-145.18;100.00;46689.69;5050012;28;20041;-72
2023/03/16 05:22:05;;;;;;;9.93;5.07;;;;;;;-145.18;100.00;46689.69;5050129;28;20285;-72
2023/03/16 05:24:31;;;;;;;10.10;4.87;;;;;;;-145.18;100.00;46701.41;5049850;28;20114;-71
2023/03/16 05:26:56;;;;;;;12.30;4.90;;;;;;;-145.18;100.00;46703.38;5040929;28;20294;-72
2023/03/16 05:29:22;;;;;;;9.67;4.90;;;;;;;-145.18;100.00;46707.28;5031325;28;20041;-72
2023/03/16 05:31:47;;;;;;;15.23;5.50;;;;;;;-145.18;100.00;46711.19;5027758;28;20156;-73
2023/03/16 05:34:13;;;;;;;13.23;4.53;;;;;;;-145.18;100.00;46711.19;5045139;28;20382;-73
2023/03/16 05:36:38;;;;;;;7.23;4.13;;;;;;;-145.18;100.00;46720.94;5045667;28;20033;-73
2023/03/16 05:39:04;;;;;;;9.77;5.30;;;;;;;-145.18;100.00;46715.09;5036636;28;20413;-73
2023/03/16 05:41:29;;;;;;;9.20;4.70;;;;;;;-145.18;100.00;46713.13;5038568;28;20034;-73
2023/03/16 05:43:54;;;;;;;12.97;5.20;;;;;;;-145.18;100.00;46711.19;5035253;28;20041;-73
2023/03/16 05:46:20;;;;;;;9.07;5.07;;;;;;;-145.18;100.00;46715.09;5042607;28;20073;-72
2023/03/16 05:48:45;;;;;;;10.97;4.80;;;;;;;-145.18;100.00;46717.03;5031412;28;20029;-73
2023/03/16 05:51:13;;;;;;;10.07;5.00;;;;;;;-145.18;100.00;46715.09;5048884;28;20040;-72
2023/03/16 05:53:38;;;;;;;15.17;4.90;;;;;;;-145.18;100.00;46715.09;5049294;28;20037;-73
2023/03/16 05:56:04;;;;;;;14.27;5.60;;;;;;;-145.18;100.00;46711.19;5049308;28;20270;-73
2023/03/16 05:58:32;;;;;;;12.17;4.87;;;;;;;-145.18;100.00;46713.13;5049324;28;20033;-72
2023/03/16 06:01:01;;;;;;;13.17;5.80;;;;;;;-145.18;100.00;46713.13;5020149;28;20271;-73
2023/03/16 06:03:26;;;;;;;13.27;5.33;;;;;;;-145.18;100.00;46713.13;5029359;28;20275;-73
2023/03/16 06:05:52;;;;;;;9.37;5.00;;;;;;;-145.18;100.00;46711.19;5013825;28;20805;-73
2023/03/16 06:08:18;;;;;;;8.73;4.17;;;;;;;-145.18;100.00;46707.28;5049786;28;20033;-72
2023/03/16 06:10:47;;;;;;;15.10;5.07;;;;;;;-145.18;100.00;46715.09;5049864;28;20076;-73
2023/03/16 06:13:12;;;;;;;10.13;4.50;;;;;;;-145.18;100.00;46713.13;5049648;28;20044;-73
2023/03/16 06:15:38;;;;;;;13.43;4.50;;;;;;;-145.18;100.00;46709.22;5049705;28;20258;-74
2023/03/16 06:18:03;;;;;;;13.00;4.73;;;;;;;-145.18;100.00;46713.13;5049234;28;20033;-75
2023/03/16 06:20:29;;;;;;;10.57;4.20;;;;;;;-145.18;100.00;46711.19;5049934;28;20037;-76
2023/03/16 06:22:54;;;;;;;7.87;4.77;;;;;;;-145.18;100.00;46707.28;5039594;28;20413;-77
2023/03/16 06:25:19;;;;;;;12.13;4.30;;;;;;;-145.18;100.00;46707.28;5033755;28;20037;-77
2023/03/16 06:27:45;;;;;;;13.20;4.50;;;;;;;-145.18;100.00;46713.13;5033445;28;20084;-76
2023/03/16 06:30:12;;;;;;;8.57;4.17;;;;;;;-145.18;100.00;46711.19;5033466;28;20496;-76
2023/03/16 06:32:40;;;;;;;8.87;3.97;;;;;;;-145.18;100.00;46711.19;5033476;28;20034;-76
2023/03/16 06:35:06;;;;;;;8.87;3.80;;;;;;;-145.18;100.00;46715.09;5033251;28;20270;-76
2023/03/16 06:37:32;;;;;;;12.87;4.10;;;;;;;-145.18;100.00;46709.22;5033641;28;20259;-76
2023/03/16 06:39:58;;;;;;;6.47;3.40;;;;;;;-145.18;100.00;46713.13;5032783;28;20274;-76
2023/03/16 06:42:23;;;;;;;8.53;3.97;;;;;;;-145.18;100.00;46711.19;5033303;28;20363;-76
2023/03/16 06:44:48;;;;;;;8.97;3.77;;;;;;;-145.18;100.00;46711.19;5032967;28;20405;-76
2023/03/16 06:47:14;;;;;;;10.20;3.97;;;;;;;-145.18;100.00;46709.22;5033516;28;20030;-76
2023/03/16 06:49:40;;;;;;;13.33;4.07;;;;;;;-145.18;100.00;46709.22;5032938;28;20025;-76
2023/03/16 06:52:05;;;;;;;14.17;4.20;;;;;;;-145.18;100.00;46707.28;5032959;28;20021;-76
2023/03/16 06:54:33;;;;;;;9.67;4.03;;;;;;;-145.18;100.00;46707.28;5033056;28;20041;-76
2023/03/16 06:56:58;;;;;;;6.87;3.87;;;;;;;-145.18;100.00;46711.19;5031917;28;20033;-76
2023/03/16 06:59:23;;;;;;;7.13;4.27;;;;;;;-145.18;100.00;46703.38;5032287;28;20281;-75
2023/03/16 07:01:49;;;;;;;6.93;3.30;;;;;;;-145.18;100.00;46701.41;5047531;28;20056;-75
2023/03/16 07:04:15;;;;;;;7.17;3.87;;;;;;;-145.18;100.00;46701.41;5052435;28;20671;-75
2023/03/16 07:06:40;;;;;;;8.07;3.60;;;;;;;-145.18;100.00;46701.41;5034943;28;20270;-75
2023/03/16 07:09:06;;;;;;;13.00;4.40;;;;;;;-145.18;100.00;46701.41;5051956;28;20039;-75
2023/03/16 07:11:32;;;;;;;7.13;3.53;;;;;;;-145.18;100.00;46703.38;5052719;28;20112;-75
2023/03/16 07:13:57;;;;;;;8.73;3.77;;;;;;;-145.18;100.00;46697.50;5051950;28;20037;-75
2023/03/16 07:16:23;;;;;;;10.97;4.07;;;;;;;-145.18;100.00;46701.41;5051394;28;20036;-74
2023/03/16 07:18:49;;;;;;;10.83;3.83;;;;;;;-145.18;100.00;46697.50;5052115;28;20029;-75
2023/03/16 07:21:14;;;;;;;8.43;3.80;;;;;;;-145.18;100.00;46695.56;5052463;28;20056;-75
2023/03/16 07:23:40;;;;;;;14.47;4.30;;;;;;;-145.18;100.00;46693.59;5034642;28;20036;-75
2023/03/16 07:26:07;;;;;;;8.40;3.73;;;;;;;-145.18;100.00;46695.56;5052120;28;20615;-74
2023/03/16 07:28:33;;;;;;;10.83;4.40;;;;;;;-145.18;100.00;46697.50;5052222;28;20033;-75
2023/03/16 07:30:58;;;;;;;8.50;3.57;;;;;;;-145.18;100.00;46695.56;5051856;28;20258;-74
2023/03/16 07:33:24;;;;;;;12.00;3.70;;;;;;;-145.18;100.00;46681.88;5051832;28;20301;-74
2023/03/16 07:35:50;;;;;;;9.17;3.87;;;;;;;-145.18;100.00;46676.03;5052129;28;20490;-75
2023/03/16 07:38:16;;;;;;;5.27;3.43;;;;;;;-145.18;100.00;46670.16;5037925;28;20492;-75
2023/03/16 07:40:41;;;;;;;6.73;3.80;;;;;;;-145.18;100.00;46648.69;5048449;28;20270;-73
2023/03/16 07:43:06;;;;;;;9.43;3.40;;;;;;;-145.18;100.00;46613.50;5051664;28;20464;-73
2023/03/16 07:45:32;;;;;;;9.40;3.60;;;;;;;-145.18;100.00;46590.06;5052284;28;20033;-73
2023/03/16 07:47:57;;;;;;;6.67;3.50;;;;;;;-145.18;100.00;46572.50;5051617;28;20111;-73
2023/03/16 07:50:23;;;;;;;7.67;3.50;;;;;;;-145.18;100.00;46564.69;5052089;28;20037;-73
2023/03/16 07:52:48;;;;;;;5.60;3.10;;;;;;;-145.18;100.00;46554.91;5050911;28;20037;-73
2023/03/16 07:55:14;;;;;;;8.87;3.27;;;;;;;-145.18;100.00;46566.63;5051506;28;20104;-73
2023/03/16 07:57:41;;;;;;;10.10;3.60;;;;;;;-145.18;100.00;46568.59;5051818;28;20044;-75
2023/03/16 08:00:08;;;;;;;7.20;3.37;;;;;;;-145.18;100.00;46568.59;5051576;28;20699;-75
2023/03/16 08:02:33;;;;;;;8.17;3.30;;;;;;;-145.18;100.00;46578.34;5034035;28;20701;-75
2023/03/16 08:04:58;;;;;;;6.57;3.00;;;;;;;-145.18;100.00;46580.31;5051355;28;20274;-74
2023/03/16 08:07:24;;;;;;;6.17;2.97;;;;;;;-145.18;100.00;46590.06;5045398;28;20141;-75
2023/03/16 08:09:51;;;;;;;8.07;2.93;;;;;;;-145.18;100.00;46601.78;5039806;28;20037;-74
2023/03/16 08:12:16;;;;;;;10.33;3.13;;;;;;;-145.18;100.00;46597.88;5041623;28;20751;-75
2023/03/16 08:14:44;;;;;;;8.97;3.30;;;;;;;-145.18;100.00;46607.66;5041485;28;20304;-74
2023/03/16 08:17:11;;;;;;;6.43;2.97;;;;;;;-145.18;100.00;46603.75;5040620;28;20041;-74
2023/03/16 08:19:37;;;;;;;10.07;3.37;;;;;;;-145.18;100.00;46613.50;5040318;28;20623;-75
2023/03/16 08:22:04;;;;;;;10.13;3.80;;;;;;;-145.18;100.00;46617.41;5041839;28;20262;-75
2023/03/16 08:24:30;;;;;;;8.20;3.77;;;;;;;-145.18;100.00;46607.66;5032088;28;20330;-75
2023/03/16 08:26:57;;;;;;;7.80;2.80;;;;;;;-145.18;100.00;46613.50;5031167;28;20274;-75
2023/03/16 08:29:24;;;;;;;6.80;3.07;;;;;;;-145.18;100.00;46621.31;5013210;28;20312;-75
2023/03/16 08:31:52;;;;;;;9.93;3.60;;;;;;;-145.18;100.00;46621.31;5031187;28;20278;-75
2023/03/16 08:34:17;;;;;;;9.73;3.33;;;;;;;-145.18;100.00;46625.22;5030871;28;20433;-75
2023/03/16 08:36:43;;;;;;;9.23;3.03;;;;;;;-145.18;100.00;46615.47;5030525;28;20349;-75
2023/03/16 08:39:09;;;;;;;6.67;3.57;;;;;;;-145.18;100.00;46635.00;5030814;28;20112;-75
2023/03/16 08:41:35;;;;;;;6.57;2.40;;;;;;;-145.18;100.00;46636.94;5013244;28;20361;-75
2023/03/16 08:44:01;;;;;;;6.17;2.57;;;;;;;-145.18;100.00;46644.78;5042115;28;20091;-75
2023/03/16 08:46:27;;;;;;;9.23;2.90;;;;;;;-145.18;100.00;46656.50;5050206;28;20033;-75
2023/03/16 08:48:54;;;;;;;4.37;2.17;;;;;;;-145.18;100.00;46656.50;5050178;28;20646;-75
2023/03/16 08:51:20;;;;;;;12.90;2.97;;;;;;;-145.18;100.00;46672.13;5033281;28;20025;-75
2023/03/16 08:53:46;;;;;;;6.97;3.00;;;;;;;-145.18;100.00;46666.25;5050501;28;20294;-75
2023/03/16 08:56:13;;;;;;;10.67;2.67;;;;;;;-145.18;100.00;46681.88;5050762;28;20128;-74
2023/03/16 08:58:44;;;;;;;9.03;2.60;;;;;;;-145.18;100.00;46693.59;5050490;28;20029;-74
2023/03/16 09:01:11;;;;;;;7.67;2.33;;;;;;;-145.18;100.00;46711.19;5050415;28;20278;-74
2023/03/16 09:03:37;;;;;;;5.47;2.50;;;;;;;-145.18;100.00;46719.00;5050003;28;20817;-73
2023/03/16 09:06:09;;;;;;;5.87;2.60;;;;;;;-145.18;100.00;46744.38;5050492;28;20266;-74
2023/03/16 09:08:35;;;;;;;6.80;2.40;;;;;;;-145.18;100.00;46744.38;5050448;28;20091;-73
2023/03/16 09:11:02;;;;;;;6.30;2.40;;;;;;;-145.18;100.00;46785.41;5050365;28;20270;-73
2023/03/16 09:13:29;;;;;;;8.20;2.40;;;;;;;-145.18;100.00;46797.13;5049343;28;20340;-73
2023/03/16 09:15:55;;;;;;;4.73;2.13;;;;;;;-145.18;100.00;46859.63;5050258;28;20528;-73
2023/03/16 09:18:23;;;;;;;8.37;2.20;;;;;;;-145.18;100.00;46861.59;5050274;28;20349;-73
2023/03/16 09:20:48;;;;;;;7.57;2.67;;;;;;;-145.18;100.00;46867.44;5050249;28;20298;-73
2023/03/16 09:23:14;;;;;;;6.23;2.43;;;;;;;-145.18;100.00;46869.41;5050098;28;20766;-73
2023/03/16 09:25:39;;;;;;;7.80;2.13;;;;;;;-145.18;100.00;46875.28;5032342;28;20029;-73
2023/03/16 09:28:05;;;;;;;5.23;2.37;;;;;;;-145.18;100.00;46920.19;5049902;28;20039;-73
2023/03/16 09:30:31;;;;;;;7.17;2.20;;;;;;;-145.18;100.00;46890.91;5048787;28;20052;-73
2023/03/16 09:32:57;;;;;;;3.80;2.10;;;;;;;-145.18;100.00;46951.44;5049907;28;20033;-73
2023/03/16 09:35:22;;;;;;;8.87;2.10;;;;;;;-145.18;100.00;46875.28;5049870;28;20313;-73
2023/03/16 09:37:48;;;;;;;6.63;2.37;;;;;;;-145.18;100.00;47166.34;5050020;28;20044;-73
2023/03/16 09:40:29;;;;;;;9.90;2.30;;;;;;;-145.18;100.00;47465.25;5031864;28;20043;-73
2023/03/16 09:43:03;;;;;;;4.57;2.10;;;;;;;-145.18;100.00;47445.72;5049902;28;20272;-73
2023/03/16 09:46:05;;;;;;;5.20;2.20;;;;;;;-145.18;100.00;47514.09;5049712;28;20269;-73
2023/03/16 09:48:34;;;;;;;4.93;2.13;;;;;;;-145.18;100.00;47539.50;5049881;28;20258;-72
2023/03/16 09:51:02;;;;;;;5.07;2.00;;;;;;;-145.18;100.00;47504.31;5032138;28;20316;-72
2023/03/16 09:53:31;;;;;;;4.43;1.87;;;;;;;-145.18;100.00;47494.56;5049847;28;20292;-72
2023/03/16 09:56:02;;;;;;;10.43;2.07;;;;;;;-145.18;100.00;47516.06;5049776;28;20282;-72
2023/03/16 09:58:28;;;;;;;7.90;2.40;;;;;;;-145.18;100.00;47482.84;5053204;28;20262;-72
2023/03/16 10:01:18;;;;;;;4.87;2.73;;;;;;;-145.18;100.00;47463.31;5053756;28;20266;-72
2023/03/16 10:04:08;;;;;;;5.00;1.93;;;;;;;-145.18;100.00;47435.94;5053873;28;20073;-72
2023/03/16 10:06:47;;;;;;;2.83;1.77;;;;;;;-145.18;100.00;47453.53;5053954;28;20254;-72
2023/03/16 10:09:31;;;;;;;5.10;1.80;;;;;;;-145.18;100.00;47453.53;5053728;28;20619;-73
2023/03/16 10:11:59;;;;;;;8.83;2.30;;;;;;;-145.18;100.00;47416.41;5053671;28;20338;-72
2023/03/16 10:15:18;;;;;;;10.80;2.13;;;;;;;-145.18;100.00;47414.47;5053379;28;20290;-72
2023/03/16 10:17:46;;;;;;;7.30;1.97;;;;;;;-145.18;100.00;47410.56;5020789;28;20630;-72
2023/03/16 10:20:17;;;;;;;5.37;2.20;;;;;;;-145.18;100.00;47410.56;5053161;28;20304;-72
2023/03/16 10:22:45;;;;;;;6.00;1.70;;;;;;;-145.18;100.00;47406.63;5053403;28;20266;-72
2023/03/16 10:25:32;;;;;;;4.10;2.10;;;;;;;-145.18;100.00;47406.63;5053370;28;20757;-72
2023/03/16 10:27:57;;;;;;;5.13;1.80;;;;;;;-145.18;100.00;47391.00;5028887;28;20644;-72
2023/03/16 10:30:26;;;;;;;3.80;1.53;;;;;;;-145.18;100.00;47402.72;5033472;28;20750;-72
2023/03/16 10:32:52;;;;;;;3.87;1.67;;;;;;;-145.18;100.00;47414.47;5032724;28;20036;-72
2023/03/16 10:35:43;;;;;;;3.57;1.70;;;;;;;-145.18;100.00;47432.03;5033197;28;20259;-72
2023/03/16 10:38:45;;;;;;;4.40;1.83;;;;;;;-145.18;100.00;47422.28;5033302;28;20262;-72
2023/03/16 10:41:16;;;;;;;4.60;1.53;;;;;;;-145.18;100.00;47412.50;5033216;28;20269;-72
2023/03/16 10:43:43;;;;;;;5.47;1.50;;;;;;;-145.18;100.00;47402.72;5015198;28;20935;-72
2023/03/16 10:46:10;;;;;;;3.93;1.90;;;;;;;-145.18;100.00;47412.50;5032969;28;20034;-72
2023/03/16 10:48:36;;;;;;;5.70;1.87;;;;;;;-145.18;100.00;47410.56;5033056;28;20278;-72
2023/03/16 10:51:07;;;;;;;6.67;1.67;;;;;;;-145.18;100.00;47379.28;5033176;28;20026;-72
2023/03/16 10:53:35;;;;;;;7.83;1.80;;;;;;;-145.18;100.00;47398.81;5033076;28;20080;-72
2023/03/16 10:56:12;;;;;;;5.37;2.13;;;;;;;-145.18;100.00;47402.72;5032699;28;20350;-72
2023/03/16 10:58:42;;;;;;;3.40;1.57;;;;;;;-145.18;100.00;47396.88;5032882;28;20029;-72
2023/03/16 11:01:17;;;;;;;8.30;1.93;;;;;;;-145.18;100.00;47428.13;5032783;28;20083;-72
2023/03/16 11:03:49;;;;;;;6.00;1.50;;;;;;;-145.18;100.00;47396.88;5032558;28;20692;-72
2023/03/16 11:06:31;;;;;;;4.07;1.60;;;;;;;-145.18;100.00;47379.28;5033460;28;20048;-72
2023/03/16 11:09:13;;;;;;;4.63;1.80;;;;;;;-145.18;100.00;47398.81;5051432;28;20308;-72
2023/03/16 11:11:38;;;;;;;4.00;1.50;;;;;;;-145.18;100.00;47400.78;5052786;28;20336;-72
2023/03/16 11:14:11;;;;;;;7.03;1.70;;;;;;;-145.18;100.00;47416.41;5052132;28;20508;-72